createdAt,value
2022-08-04T00:00:19.788Z,1.87
2022-08-04T00:03:05.483Z,1.70
2022-08-04T00:06:00.169Z,2.03
2022-08-04T00:08:45.811Z,1.92
2022-08-04T00:11:20.433Z,1.90
2022-08-04T00:14:14.145Z,1.92
2022-08-04T00:19:33.428Z,1.98
2022-08-04T00:22:06.044Z,2.58
2022-08-04T00:24:36.662Z,2.40
2022-08-04T00:27:04.239Z,2.25
2022-08-04T00:29:32.822Z,2.30
2022-08-04T00:32:02.426Z,2.47
2022-08-04T00:34:33.052Z,2.20
2022-08-04T00:37:00.629Z,3.08
2022-08-04T00:39:29.280Z,2.10
2022-08-04T00:42:02.847Z,2.28
2022-08-04T00:45:02.581Z,2.30
2022-08-04T00:47:51.588Z,1.92
2022-08-04T00:50:45.947Z,2.20
2022-08-04T00:53:19.563Z,2.10
2022-08-04T00:56:09.246Z,2.40
2022-08-04T00:58:50.900Z,2.15
2022-08-04T01:01:45.790Z,2.17
2022-08-04T01:04:31.480Z,3.08
2022-08-04T01:07:32.987Z,1.90
2022-08-04T01:10:08.280Z,2.50
2022-08-04T01:12:41.220Z,2.20
2022-08-04T01:16:00.698Z,2.38
2022-08-04T01:18:42.692Z,2.15
2022-08-04T01:21:48.010Z,2.30
2022-08-04T01:24:57.191Z,2.00
2022-08-04T01:27:58.913Z,2.38
2022-08-04T01:30:28.519Z,2.13
2022-08-04T01:33:05.149Z,2.33
2022-08-04T01:35:48.457Z,2.17
2022-08-04T01:38:21.803Z,2.47
2022-08-04T01:40:54.312Z,2.63
2022-08-04T01:43:22.017Z,2.47
2022-08-04T01:45:58.399Z,2.28
2022-08-04T01:48:27.313Z,2.58
2022-08-04T01:50:58.142Z,2.40
2022-08-04T01:53:43.112Z,2.33
2022-08-04T02:24:46.290Z,2.15
2022-08-04T02:27:25.496Z,2.67
2022-08-04T02:30:03.682Z,2.80
2022-08-04T02:32:39.773Z,2.50
2022-08-04T02:35:08.403Z,2.58
2022-08-04T02:37:36.703Z,2.88
2022-08-04T02:40:06.966Z,2.75
2022-08-04T02:42:35.597Z,2.40
2022-08-04T02:45:04.757Z,2.47
2022-08-04T02:48:28.869Z,1.95
2022-08-04T02:50:29.142Z,2.60
2022-08-04T02:53:01.435Z,2.75
2022-08-04T02:55:31.022Z,2.27
2022-08-04T02:58:02.091Z,2.65
2022-08-04T03:00:30.247Z,2.25
2022-08-04T03:03:06.159Z,2.40
2022-08-04T03:05:57.736Z,2.10
2022-08-04T03:08:55.237Z,2.42
2022-08-04T03:11:48.845Z,2.67
2022-08-04T03:14:53.293Z,2.80
2022-08-04T03:17:53.008Z,2.78
2022-08-04T03:20:29.473Z,3.00
2022-08-04T03:23:13.839Z,2.53
2022-08-04T03:26:08.630Z,3.22
2022-08-04T03:28:53.122Z,2.90
2022-08-04T03:31:54.650Z,3.25
2022-08-04T03:34:59.199Z,2.58
2022-08-04T03:37:55.105Z,2.97
2022-08-04T03:40:33.157Z,2.60
2022-08-04T03:43:57.999Z,2.42
2022-08-04T03:47:05.444Z,2.55
2022-08-04T03:49:43.084Z,2.35
2022-08-04T03:52:30.748Z,2.38
2022-08-04T03:55:26.445Z,2.75
2022-08-04T03:57:56.697Z,2.40
2022-08-04T04:00:34.907Z,2.92
2022-08-04T04:03:28.324Z,2.60
2022-08-04T04:06:31.324Z,2.22
2022-08-04T04:09:48.488Z,2.58
2022-08-04T04:12:53.682Z,2.60
2022-08-04T04:15:29.936Z,2.42
2022-08-04T04:18:42.937Z,2.40
2022-08-04T04:21:57.077Z,2.40
2022-08-04T04:24:49.909Z,2.85
2022-08-04T04:27:31.828Z,2.30
2022-08-04T04:30:06.828Z,2.25
2022-08-04T04:32:38.653Z,2.78
2022-08-04T04:35:21.077Z,2.92
2022-08-04T04:38:06.531Z,2.10
2022-08-04T04:41:08.217Z,2.58
2022-08-04T04:43:51.692Z,2.13
2022-08-04T04:49:29.352Z,2.90
2022-08-04T04:52:09.915Z,2.85
2022-08-04T04:55:06.164Z,2.38
2022-08-04T04:57:54.067Z,2.95
2022-08-04T05:00:30.137Z,2.85
2022-08-04T05:03:16.797Z,2.42
2022-08-04T05:06:01.463Z,2.03
2022-08-04T05:09:08.206Z,2.45
2022-08-04T05:11:59.907Z,2.72
2022-08-04T05:14:41.470Z,2.40
2022-08-04T05:17:34.470Z,2.47
2022-08-04T05:20:07.739Z,2.72
2022-08-04T05:22:44.819Z,2.10
2022-08-04T05:25:23.123Z,2.50
2022-08-04T05:28:03.761Z,2.58
2022-08-04T05:30:50.436Z,2.60
2022-08-04T05:33:27.176Z,2.67
2022-08-04T05:36:21.741Z,2.70
2022-08-04T05:39:00.560Z,2.50
2022-08-04T05:41:46.007Z,2.00
2022-08-04T05:44:24.746Z,2.60
2022-08-04T05:46:56.360Z,2.95
2022-08-04T05:49:25.941Z,2.30
2022-08-04T05:51:56.548Z,2.78
2022-08-04T05:54:25.147Z,2.83
2022-08-04T05:56:55.749Z,2.55
2022-08-04T05:59:26.373Z,2.63
2022-08-04T06:01:59.039Z,3.03
2022-08-04T06:04:36.658Z,2.72
2022-08-04T06:07:05.219Z,2.70
2022-08-04T06:09:33.806Z,2.42
2022-08-04T06:12:04.676Z,2.63
2022-08-04T06:14:45.690Z,2.22
2022-08-04T06:18:33.232Z,2.53
2022-08-04T06:20:20.008Z,2.38
2022-08-04T06:22:55.029Z,2.73
2022-08-04T06:25:33.666Z,2.70
2022-08-04T06:28:02.478Z,2.75
2022-08-04T06:30:32.791Z,2.42
2022-08-04T06:33:05.139Z,2.67
2022-08-04T06:35:34.322Z,2.42
2022-08-04T06:38:05.713Z,2.03
2022-08-04T06:40:35.367Z,2.65
2022-08-04T06:43:07.045Z,2.50
2022-08-04T06:45:37.455Z,2.55
2022-08-04T06:48:07.179Z,2.50
2022-08-04T06:51:24.505Z,3.00
2022-08-04T06:53:28.396Z,2.47
2022-08-04T06:55:58.009Z,2.88
2022-08-04T06:58:27.623Z,2.78
2022-08-04T07:00:56.217Z,3.03
2022-08-04T07:03:24.799Z,2.35
2022-08-04T07:05:53.397Z,2.42
2022-08-04T07:08:23.686Z,2.83
2022-08-04T07:10:55.608Z,2.88
2022-08-04T07:13:25.216Z,2.60
2022-08-04T07:15:56.834Z,2.58
2022-08-04T07:18:24.419Z,2.90
2022-08-04T07:20:54.033Z,2.78
2022-08-04T07:23:26.707Z,2.78
2022-08-04T07:26:12.350Z,2.53
2022-08-04T07:28:43.649Z,2.33
2022-08-04T07:31:31.936Z,2.42
2022-08-04T07:34:16.838Z,2.55
2022-08-04T07:36:55.714Z,2.50
2022-08-04T07:39:28.955Z,1.92
2022-08-04T07:41:59.116Z,1.60
2022-08-04T07:44:28.695Z,1.55
2022-08-04T07:46:56.455Z,0.82
2022-08-04T07:49:55.932Z,1.00
2022-08-04T07:52:17.381Z,0.82
2022-08-04T07:54:47.187Z,0.80
2022-08-04T07:57:19.569Z,0.80
2022-08-04T08:00:09.471Z,1.05
2022-08-04T08:02:41.088Z,0.80
2022-08-04T08:05:11.556Z,0.80
2022-08-04T08:07:50.171Z,0.77
2022-08-04T08:12:54.096Z,0.85
2022-08-04T08:15:22.155Z,0.70
2022-08-04T08:17:59.955Z,0.80
2022-08-04T08:20:30.721Z,0.90
2022-08-04T08:23:00.008Z,0.90
2022-08-04T08:25:28.103Z,1.00
2022-08-04T08:27:56.303Z,0.98
2022-08-04T08:30:32.193Z,0.80
2022-08-04T08:33:05.810Z,0.65
2022-08-04T08:35:54.703Z,0.80
2022-08-04T08:38:46.830Z,0.80
2022-08-04T08:41:43.565Z,0.82
2022-08-04T08:44:48.281Z,1.27
2022-08-04T08:48:04.590Z,0.93
2022-08-04T08:50:49.745Z,0.90
2022-08-04T08:53:56.480Z,0.90
2022-08-04T08:56:43.147Z,1.00
2022-08-04T08:59:19.803Z,0.70
2022-08-04T09:02:00.151Z,0.75
2022-08-04T09:04:39.071Z,1.00
2022-08-04T09:07:39.219Z,0.80
2022-08-04T09:10:17.444Z,1.00
2022-08-04T09:12:54.067Z,0.90
2022-08-04T09:15:33.087Z,0.90
2022-08-04T09:18:12.343Z,1.10
2022-08-04T09:20:54.992Z,0.88
2022-08-04T09:26:30.349Z,0.90
2022-08-04T09:29:06.957Z,0.90
2022-08-04T09:32:06.920Z,0.90
2022-08-04T09:35:03.415Z,1.20
2022-08-04T09:37:45.748Z,0.88
2022-08-04T09:40:31.454Z,1.20
2022-08-04T09:44:42.342Z,1.02
2022-08-04T09:46:38.245Z,0.98
2022-08-04T09:49:15.842Z,1.20
2022-08-04T09:52:07.546Z,1.00
2022-08-04T09:55:01.218Z,0.98
2022-08-04T09:57:36.846Z,1.10
2022-08-04T10:00:09.462Z,0.98
2022-08-04T10:02:48.165Z,1.05
2022-08-04T10:05:21.739Z,0.90
2022-08-04T10:08:02.133Z,1.08
2022-08-04T10:11:07.117Z,1.08
2022-08-04T10:13:40.747Z,1.00
2022-08-04T10:16:59.546Z,1.10
2022-08-04T10:19:36.209Z,1.00
2022-08-04T10:22:40.592Z,1.38
2022-08-04T10:26:07.553Z,1.17
2022-08-04T10:28:45.379Z,1.00
2022-08-04T10:31:22.027Z,1.05
2022-08-04T10:34:00.672Z,1.02
2022-08-04T10:36:37.278Z,1.00
2022-08-04T10:39:12.256Z,1.10
2022-08-04T10:42:23.665Z,1.10
2022-08-04T10:45:36.907Z,1.30
2022-08-04T10:48:17.076Z,1.10
2022-08-04T10:51:21.819Z,1.35
2022-08-04T10:53:59.489Z,1.20
2022-08-04T10:56:44.138Z,1.10
2022-08-04T10:59:20.746Z,1.30
2022-08-04T11:02:01.590Z,1.17
2022-08-04T11:04:42.055Z,1.33
2022-08-04T11:07:13.678Z,1.05
2022-08-04T11:09:44.020Z,1.13
2022-08-04T11:12:16.878Z,1.30
2022-08-04T11:15:00.545Z,1.15
2022-08-04T11:17:37.150Z,1.02
2022-08-04T11:20:36.178Z,1.42
2022-08-04T11:23:11.496Z,1.25
2022-08-04T11:26:18.990Z,1.15
2022-08-04T11:29:09.960Z,1.10
2022-08-04T11:31:48.412Z,1.35
2022-08-04T11:34:27.372Z,1.33
2022-08-04T11:37:15.048Z,1.25
2022-08-04T11:39:46.378Z,1.27
2022-08-04T11:42:29.252Z,1.20
2022-08-04T11:45:11.838Z,1.23
2022-08-04T12:55:42.585Z,1.27
2022-08-04T12:58:42.909Z,1.08
2022-08-04T13:02:10.105Z,1.00
2022-08-04T13:04:21.918Z,1.02
2022-08-04T13:07:04.057Z,1.17
2022-08-04T13:09:34.959Z,1.05
2022-08-04T13:12:06.798Z,1.17
2022-08-04T13:14:39.404Z,1.27
2022-08-04T13:17:13.474Z,1.30
2022-08-04T13:19:50.120Z,1.10
2022-08-04T13:22:27.309Z,1.02
2022-08-04T13:27:55.313Z,1.27
2022-08-04T13:30:25.212Z,1.08
2022-08-04T13:30:28.247Z,1.20
2022-08-04T13:33:01.642Z,1.10
2022-08-04T13:35:55.624Z,1.13
2022-08-04T13:38:20.110Z,1.30
2022-08-04T13:40:49.732Z,1.10
2022-08-04T13:44:15.665Z,1.20
2022-08-04T13:46:32.112Z,1.05
2022-08-04T13:51:58.074Z,1.20
2022-08-04T13:54:47.402Z,0.90
2022-08-04T13:57:30.733Z,1.20
2022-08-04T14:00:05.365Z,1.15
2022-08-04T14:02:50.008Z,1.15
2022-08-04T14:05:26.818Z,0.98
2022-08-04T14:08:05.569Z,1.10
2022-08-04T14:10:36.957Z,1.00
2022-08-04T14:13:05.498Z,0.70
2022-08-04T14:16:01.873Z,0.90
2022-08-04T14:18:30.259Z,0.95
2022-08-04T14:21:04.784Z,1.20
2022-08-04T14:23:50.968Z,0.80
2022-08-04T14:26:21.479Z,0.93
2022-08-04T14:29:26.976Z,1.05
2022-08-04T14:32:10.452Z,1.00
2022-08-04T14:34:45.348Z,1.10
2022-08-04T14:40:17.826Z,1.00
2022-08-04T14:42:54.674Z,1.00
2022-08-04T14:45:34.350Z,1.10
2022-08-04T14:48:05.661Z,0.90
2022-08-04T14:50:39.690Z,0.98
2022-08-04T14:53:14.188Z,1.02
2022-08-04T14:55:47.613Z,1.10
2022-08-04T14:58:34.169Z,1.00
2022-08-04T15:01:11.706Z,1.10
2022-08-04T15:03:52.460Z,1.30
2022-08-04T15:06:27.486Z,0.95
2022-08-04T15:08:59.978Z,1.10
2022-08-04T15:11:29.663Z,1.05
2022-08-04T15:14:00.205Z,1.00
2022-08-04T15:16:30.538Z,1.17
2022-08-04T15:19:01.403Z,1.17
2022-08-04T15:21:29.995Z,1.08
2022-08-04T15:24:00.613Z,1.17
2022-08-04T15:26:52.326Z,1.30
2022-08-04T15:29:28.746Z,0.98
2022-08-04T15:32:09.005Z,0.90
2022-08-04T15:34:55.655Z,1.10
2022-08-04T15:37:31.874Z,1.20
2022-08-04T15:40:13.608Z,1.00
2022-08-04T15:43:26.287Z,1.30
2022-08-04T15:46:41.636Z,1.00
2022-08-04T15:48:52.604Z,1.20
2022-08-04T15:51:32.012Z,1.00
2022-08-04T15:54:03.182Z,1.05
2022-08-04T15:56:33.631Z,0.90
2022-08-04T15:59:02.074Z,1.23
2022-08-04T16:01:29.750Z,0.90
2022-08-04T16:03:59.687Z,0.90
2022-08-04T16:06:30.817Z,0.90
2022-08-04T16:09:01.501Z,1.10
2022-08-04T16:11:38.125Z,0.90
2022-08-04T16:14:07.731Z,0.88
2022-08-04T16:16:50.355Z,1.00
2022-08-04T16:19:35.255Z,0.80
2022-08-04T16:22:06.640Z,1.13
2022-08-04T16:24:39.235Z,0.80
2022-08-04T16:27:10.878Z,1.00
2022-08-04T16:29:44.780Z,1.00
2022-08-04T16:32:15.150Z,0.90
2022-08-04T16:35:01.753Z,1.00
2022-08-04T16:37:43.409Z,0.80
2022-08-04T16:40:37.179Z,0.73
2022-08-04T16:43:16.738Z,0.98
2022-08-04T16:45:59.389Z,0.88
2022-08-04T16:48:29.765Z,0.98
2022-08-04T16:51:16.674Z,1.05
2022-08-04T16:53:57.877Z,1.35
2022-08-04T16:56:36.191Z,1.10
2022-08-04T16:59:12.578Z,1.10
2022-08-04T17:01:54.277Z,0.90
2022-08-04T17:04:32.865Z,0.80
2022-08-04T17:07:02.479Z,0.88
2022-08-04T17:09:31.067Z,0.85
2022-08-04T17:12:00.680Z,0.93
2022-08-04T17:14:31.341Z,0.82
2022-08-04T17:17:01.873Z,1.33
2022-08-04T17:19:28.993Z,1.02
2022-08-04T17:22:10.571Z,1.00
2022-08-04T17:24:40.702Z,0.85
2022-08-04T17:28:09.157Z,1.00
2022-08-04T17:29:57.043Z,1.02
2022-08-04T17:32:24.825Z,1.00
2022-08-04T17:34:55.233Z,1.10
2022-08-04T17:37:39.601Z,0.98
2022-08-04T17:40:11.497Z,0.98
2022-08-04T17:48:24.682Z,1.13
2022-08-04T17:50:51.988Z,0.95
2022-08-04T17:54:02.882Z,0.90
2022-08-04T17:56:52.109Z,0.90
2022-08-04T17:59:52.344Z,0.80
2022-08-04T18:02:32.872Z,0.88
2022-08-04T18:05:07.826Z,1.75
2022-08-04T18:08:39.779Z,0.93
2022-08-04T18:10:51.606Z,0.70
2022-08-04T18:13:42.892Z,1.13
2022-08-04T18:16:22.830Z,0.82
2022-08-04T18:19:14.967Z,1.00
2022-08-04T18:21:46.042Z,1.02
2022-08-04T18:24:35.544Z,0.98
2022-08-04T18:27:17.917Z,0.90
2022-08-04T18:30:14.979Z,1.00
2022-08-04T18:32:35.154Z,0.90
2022-08-04T18:35:07.247Z,0.93
2022-08-04T18:38:06.082Z,0.80
2022-08-04T18:40:35.574Z,0.90
2022-08-04T18:43:06.810Z,1.42
2022-08-04T18:45:35.136Z,1.00
2022-08-04T18:48:03.979Z,0.90
2022-08-04T18:51:09.674Z,1.25
2022-08-04T18:53:35.490Z,1.00
2022-08-04T18:58:54.511Z,0.90
2022-08-04T19:01:22.194Z,1.00
2022-08-04T19:03:58.746Z,1.20
2022-08-04T19:06:27.409Z,0.98
2022-08-04T19:08:54.920Z,2.10
2022-08-04T19:14:13.247Z,1.20
2022-08-04T19:16:45.985Z,1.23
2022-08-04T19:19:16.436Z,1.10
2022-08-04T19:22:01.624Z,0.95
2022-08-04T19:27:19.379Z,1.10
2022-08-04T19:29:47.955Z,1.10
2022-08-04T19:32:16.582Z,1.10
2022-08-04T19:34:46.110Z,1.02
2022-08-04T19:37:58.315Z,1.08
2022-08-04T19:42:41.063Z,1.00
2022-08-04T19:48:17.512Z,1.08
2022-08-04T19:50:47.031Z,1.02
2022-08-04T19:53:19.466Z,0.95
2022-08-04T19:55:49.929Z,0.85
2022-08-04T19:58:19.857Z,1.17
2022-08-04T20:00:53.461Z,1.10
2022-08-04T20:03:23.073Z,1.00
2022-08-04T20:06:10.726Z,1.23
2022-08-04T20:08:38.335Z,1.13
2022-08-04T20:11:19.419Z,1.27
2022-08-04T20:13:54.719Z,1.60
2022-08-04T20:16:29.452Z,1.40
2022-08-04T20:19:03.144Z,1.48
2022-08-04T20:21:53.560Z,1.10
2022-08-04T20:24:37.844Z,1.25
2022-08-04T20:27:15.936Z,1.30
2022-08-04T20:29:49.887Z,1.50
2022-08-04T20:32:24.068Z,2.03
2022-08-04T20:34:54.837Z,1.70
2022-08-04T20:37:30.151Z,1.35
2022-08-04T20:40:13.938Z,1.42
2022-08-04T20:42:45.003Z,1.70
2022-08-04T20:45:16.642Z,1.33
2022-08-04T20:47:54.106Z,1.30
2022-08-04T20:50:29.511Z,1.52
2022-08-04T20:53:00.014Z,1.63
2022-08-04T20:55:29.797Z,1.50
2022-08-04T20:58:03.196Z,1.45
2022-08-04T21:00:33.833Z,1.40
2022-08-04T21:03:02.425Z,1.27
2022-08-04T21:05:31.604Z,1.38
2022-08-04T21:07:59.638Z,1.67
2022-08-04T21:10:29.284Z,1.73
2022-08-04T21:12:57.865Z,1.83
2022-08-04T21:15:57.895Z,1.52
2022-08-04T21:18:16.726Z,1.67
2022-08-04T21:20:45.031Z,1.90
2022-08-04T21:23:15.323Z,1.50
2022-08-04T21:25:45.613Z,1.70
2022-08-04T21:28:20.451Z,1.70
2022-08-04T21:30:54.363Z,1.67
2022-08-04T21:33:36.111Z,1.48
2022-08-04T21:36:13.520Z,1.70
2022-08-04T21:38:51.802Z,1.95
2022-08-04T21:41:24.763Z,1.30
2022-08-04T21:43:55.304Z,1.60
2022-08-04T21:46:22.827Z,1.70
2022-08-04T21:48:50.472Z,1.30
2022-08-04T21:51:58.457Z,2.20
2022-08-04T21:54:15.266Z,1.77
2022-08-04T21:56:50.864Z,1.58
2022-08-04T21:59:23.774Z,1.65
2022-08-04T22:01:59.931Z,2.00
2022-08-04T22:04:28.261Z,1.80
2022-08-04T22:06:55.854Z,1.83
2022-08-04T22:09:23.431Z,1.80
2022-08-04T22:11:52.319Z,1.80
2022-08-04T22:14:27.557Z,1.92
2022-08-04T22:16:58.694Z,2.25
2022-08-04T22:19:40.822Z,1.63
2022-08-04T22:22:26.329Z,1.80
2022-08-04T22:25:06.282Z,1.75
2022-08-04T22:28:02.658Z,1.70
2022-08-04T22:30:37.003Z,1.92
2022-08-04T22:33:09.208Z,1.98
2022-08-04T22:35:49.505Z,2.08
2022-08-04T22:38:28.149Z,1.80
2022-08-04T22:41:11.111Z,2.08
2022-08-04T22:43:40.698Z,1.60
2022-08-04T22:46:11.907Z,2.00
2022-08-04T22:48:43.652Z,1.92
2022-08-04T22:51:13.218Z,1.95
2022-08-04T22:53:42.110Z,1.60
2022-08-04T22:56:37.199Z,1.98
2022-08-04T22:59:11.030Z,1.80
2022-08-04T23:01:58.977Z,1.60
2022-08-04T23:04:29.717Z,1.55
2022-08-04T23:06:57.943Z,1.77
2022-08-04T23:09:49.363Z,1.60
2022-08-04T23:12:24.435Z,1.65
2022-08-04T23:14:55.234Z,1.60
2022-08-04T23:17:25.121Z,2.00
2022-08-04T23:19:59.664Z,2.05
2022-08-04T23:22:41.188Z,2.00
2022-08-04T23:25:16.112Z,2.05
2022-08-04T23:27:51.635Z,2.72
2022-08-04T23:30:30.071Z,2.33
2022-08-04T23:32:58.125Z,1.95
2022-08-04T23:35:26.188Z,1.40
2022-08-04T23:37:57.755Z,1.52
2022-08-04T23:40:33.509Z,1.90
2022-08-04T23:43:16.989Z,2.35
2022-08-04T23:46:06.386Z,1.95
2022-08-04T23:48:36.378Z,2.20
2022-08-04T23:51:14.215Z,2.20
2022-08-04T23:54:01.758Z,2.00
2022-08-04T23:56:35.301Z,2.30
2022-08-04T23:59:03.850Z,2.42
